sensor_id;sensor_type;location;lat;lon;timestamp;pressure;altitude;pressure_sealevel;temperature;humidity
40117;BME280;25829;50.228;18.936;2022-07-06T00:00:20;98696.75;;;16.32;82.97
40117;BME280;25829;50.228;18.936;2022-07-06T00:03:20;98686.47;;;16.23;83.04
40117;BME280;25829;50.228;18.936;2022-07-06T00:06:22;98698.97;;;16.23;83.11
40117;BME280;25829;50.228;18.936;2022-07-06T00:09:23;98697.47;;;16.15;82.95
40117;BME280;25829;50.228;18.936;2022-07-06T00:12:24;98696.09;;;16.13;82.94
40117;BME280;25829;50.228;18.936;2022-07-06T00:15:25;98697.38;;;16.10;83.33
40117;BME280;25829;50.228;18.936;2022-07-06T00:18:26;98694.72;;;16.10;83.33
40117;BME280;25829;50.228;18.936;2022-07-06T00:21:27;98693.91;;;16.10;83.33
40117;BME280;25829;50.228;18.936;2022-07-06T00:24:28;98695.28;;;16.12;83.19
40117;BME280;25829;50.228;18.936;2022-07-06T00:27:29;98699.81;;;16.12;83.04
40117;BME280;25829;50.228;18.936;2022-07-06T00:30:30;98698.84;;;16.18;82.74
40117;BME280;25829;50.228;18.936;2022-07-06T00:33:31;98693.53;;;16.18;82.50
40117;BME280;25829;50.228;18.936;2022-07-06T00:36:32;98701.75;;;16.16;82.77
40117;BME280;25829;50.228;18.936;2022-07-06T00:39:33;98699.09;;;16.16;82.62
40117;BME280;25829;50.228;18.936;2022-07-06T00:42:51;98703.28;;;16.24;82.43
40117;BME280;25829;50.228;18.936;2022-07-06T00:45:52;98706.72;;;16.24;82.30
40117;BME280;25829;50.228;18.936;2022-07-06T00:48:52;98708.66;;;16.29;82.19
40117;BME280;25829;50.228;18.936;2022-07-06T00:51:53;98714.91;;;16.35;82.17
40117;BME280;25829;50.228;18.936;2022-07-06T00:54:58;98706.66;;;16.36;81.76
40117;BME280;25829;50.228;18.936;2022-07-06T00:58:01;98711.78;;;16.38;81.75
40117;BME280;25829;50.228;18.936;2022-07-06T01:01:02;98703.28;;;16.41;81.96
40117;BME280;25829;50.228;18.936;2022-07-06T01:04:03;98711.38;;;16.46;81.54
40117;BME280;25829;50.228;18.936;2022-07-06T01:07:04;98709.84;;;16.50;81.16
40117;BME280;25829;50.228;18.936;2022-07-06T01:10:06;98693.97;;;16.55;80.92
40117;BME280;25829;50.228;18.936;2022-07-06T01:13:13;98692.66;;;16.58;80.76
40117;BME280;25829;50.228;18.936;2022-07-06T01:16:14;98685.72;;;16.57;80.64
40117;BME280;25829;50.228;18.936;2022-07-06T01:19:15;98692.31;;;16.54;80.50
40117;BME280;25829;50.228;18.936;2022-07-06T01:22:16;98693.88;;;16.50;80.33
40117;BME280;25829;50.228;18.936;2022-07-06T01:25:17;98686.34;;;16.47;80.37
40117;BME280;25829;50.228;18.936;2022-07-06T01:28:19;98687.56;;;16.39;80.32
40117;BME280;25829;50.228;18.936;2022-07-06T01:31:24;98684.25;;;16.32;80.24
40117;BME280;25829;50.228;18.936;2022-07-06T01:34:26;98678.47;;;16.23;80.39
40117;BME280;25829;50.228;18.936;2022-07-06T01:37:27;98681.84;;;16.19;80.47
40117;BME280;25829;50.228;18.936;2022-07-06T01:40:28;98685.31;;;16.19;80.61
40117;BME280;25829;50.228;18.936;2022-07-06T01:43:28;98690.63;;;16.19;80.28
40117;BME280;25829;50.228;18.936;2022-07-06T01:46:30;98684.97;;;16.16;80.04
40117;BME280;25829;50.228;18.936;2022-07-06T01:49:31;98686.75;;;16.10;80.26
40117;BME280;25829;50.228;18.936;2022-07-06T01:52:31;98691.47;;;16.08;80.21
40117;BME280;25829;50.228;18.936;2022-07-06T01:55:32;98687.44;;;16.06;80.10
40117;BME280;25829;50.228;18.936;2022-07-06T01:58:33;98690.34;;;16.04;79.93
40117;BME280;25829;50.228;18.936;2022-07-06T02:01:34;98684.69;;;16.00;79.89
40117;BME280;25829;50.228;18.936;2022-07-06T02:04:36;98686.56;;;16.00;80.15
40117;BME280;25829;50.228;18.936;2022-07-06T02:07:37;98683.31;;;15.98;79.77
40117;BME280;25829;50.228;18.936;2022-07-06T02:10:38;98681.91;;;15.95;79.82
40117;BME280;25829;50.228;18.936;2022-07-06T02:13:39;98680.56;;;15.93;79.73
40117;BME280;25829;50.228;18.936;2022-07-06T02:16:42;98669.09;;;15.92;79.89
40117;BME280;25829;50.228;18.936;2022-07-06T02:19:43;98669.38;;;15.79;79.73
40117;BME280;25829;50.228;18.936;2022-07-06T02:22:43;98674.97;;;15.66;79.90
40117;BME280;25829;50.228;18.936;2022-07-06T02:25:45;98677.97;;;15.58;80.13
40117;BME280;25829;50.228;18.936;2022-07-06T02:28:46;98692.09;;;15.58;80.38
40117;BME280;25829;50.228;18.936;2022-07-06T02:31:48;98697.97;;;15.60;80.25
40117;BME280;25829;50.228;18.936;2022-07-06T02:34:49;98703.63;;;15.64;80.14
40117;BME280;25829;50.228;18.936;2022-07-06T02:37:50;98694.59;;;15.65;80.00
40117;BME280;25829;50.228;18.936;2022-07-06T02:40:51;98693.00;;;15.64;79.95
40117;BME280;25829;50.228;18.936;2022-07-06T02:43:51;98699.59;;;15.61;79.74
40117;BME280;25829;50.228;18.936;2022-07-06T02:46:52;98688.41;;;15.59;79.89
40117;BME280;25829;50.228;18.936;2022-07-06T02:49:54;98697.19;;;15.60;79.53
40117;BME280;25829;50.228;18.936;2022-07-06T02:52:56;98693.94;;;15.58;79.50
40117;BME280;25829;50.228;18.936;2022-07-06T02:55:59;98696.84;;;15.56;79.45
40117;BME280;25829;50.228;18.936;2022-07-06T02:58:59;98692.22;;;15.51;79.32
40117;BME280;25829;50.228;18.936;2022-07-06T03:02:00;98704.13;;;15.49;79.19
40117;BME280;25829;50.228;18.936;2022-07-06T03:05:02;98705.66;;;15.45;79.01
40117;BME280;25829;50.228;18.936;2022-07-06T03:08:04;98701.34;;;15.44;79.27
40117;BME280;25829;50.228;18.936;2022-07-06T03:11:05;98704.47;;;15.41;79.17
40117;BME280;25829;50.228;18.936;2022-07-06T03:14:06;98704.72;;;15.39;79.09
40117;BME280;25829;50.228;18.936;2022-07-06T03:17:10;98713.16;;;15.36;79.08
40117;BME280;25829;50.228;18.936;2022-07-06T03:20:11;98720.56;;;15.34;78.79
40117;BME280;25829;50.228;18.936;2022-07-06T03:23:13;98708.53;;;15.31;78.71
40117;BME280;25829;50.228;18.936;2022-07-06T03:26:14;98711.75;;;15.33;78.85
40117;BME280;25829;50.228;18.936;2022-07-06T03:29:15;98716.28;;;15.33;79.28
40117;BME280;25829;50.228;18.936;2022-07-06T03:32:17;98724.25;;;15.33;79.07
40117;BME280;25829;50.228;18.936;2022-07-06T03:35:18;98713.63;;;15.33;78.94
40117;BME280;25829;50.228;18.936;2022-07-06T03:38:20;98718.72;;;15.35;79.26
40117;BME280;25829;50.228;18.936;2022-07-06T03:41:21;98722.97;;;15.36;79.21
40117;BME280;25829;50.228;18.936;2022-07-06T03:44:22;98729.34;;;15.35;79.29
40117;BME280;25829;50.228;18.936;2022-07-06T03:47:23;98726.34;;;15.31;79.20
40117;BME280;25829;50.228;18.936;2022-07-06T03:50:25;98735.34;;;15.30;79.40
40117;BME280;25829;50.228;18.936;2022-07-06T03:53:27;98733.53;;;15.30;78.86
40117;BME280;25829;50.228;18.936;2022-07-06T03:56:28;98729.00;;;15.31;79.09
40117;BME280;25829;50.228;18.936;2022-07-06T03:59:32;98735.34;;;15.30;79.35
40117;BME280;25829;50.228;18.936;2022-07-06T04:02:33;98745.50;;;15.33;79.46
40117;BME280;25829;50.228;18.936;2022-07-06T04:05:34;98752.56;;;15.39;79.65
40117;BME280;25829;50.228;18.936;2022-07-06T04:08:35;98746.78;;;15.42;79.67
40117;BME280;25829;50.228;18.936;2022-07-06T04:11:36;98743.88;;;15.44;79.71
40117;BME280;25829;50.228;18.936;2022-07-06T04:14:38;98749.56;;;15.47;79.68
40117;BME280;25829;50.228;18.936;2022-07-06T04:17:39;98755.00;;;15.52;79.87
40117;BME280;25829;50.228;18.936;2022-07-06T04:20:52;98751.88;;;15.55;79.83
40117;BME280;25829;50.228;18.936;2022-07-06T04:23:53;98762.84;;;15.59;79.47
40117;BME280;25829;50.228;18.936;2022-07-06T04:26:54;98767.94;;;15.61;79.74
40117;BME280;25829;50.228;18.936;2022-07-06T04:29:55;98774.06;;;15.61;79.56
40117;BME280;25829;50.228;18.936;2022-07-06T04:32:56;98775.44;;;15.64;79.70
40117;BME280;25829;50.228;18.936;2022-07-06T04:36:00;98779.03;;;15.69;79.61
40117;BME280;25829;50.228;18.936;2022-07-06T04:39:10;98783.66;;;15.74;79.35
40117;BME280;25829;50.228;18.936;2022-07-06T04:42:11;98780.78;;;15.75;79.48
40117;BME280;25829;50.228;18.936;2022-07-06T04:45:12;98783.53;;;15.80;79.58
40117;BME280;25829;50.228;18.936;2022-07-06T04:48:13;98776.69;;;15.85;79.52
40117;BME280;25829;50.228;18.936;2022-07-06T04:51:13;98773.81;;;15.86;79.25
40117;BME280;25829;50.228;18.936;2022-07-06T04:54:15;98768.59;;;15.91;79.58
40117;BME280;25829;50.228;18.936;2022-07-06T04:57:15;98782.00;;;15.96;79.57
40117;BME280;25829;50.228;18.936;2022-07-06T05:00:17;98791.94;;;16.01;79.79
40117;BME280;25829;50.228;18.936;2022-07-06T05:03:19;98780.59;;;16.06;79.57
40117;BME280;25829;50.228;18.936;2022-07-06T05:06:20;98786.59;;;16.13;79.36
40117;BME280;25829;50.228;18.936;2022-07-06T05:09:21;98785.91;;;16.17;78.95
40117;BME280;25829;50.228;18.936;2022-07-06T05:12:23;98787.63;;;16.23;78.90
40117;BME280;25829;50.228;18.936;2022-07-06T05:15:25;98780.31;;;16.31;78.88
40117;BME280;25829;50.228;18.936;2022-07-06T05:18:26;98776.22;;;16.40;78.80
40117;BME280;25829;50.228;18.936;2022-07-06T05:21:27;98776.88;;;16.47;78.69
40117;BME280;25829;50.228;18.936;2022-07-06T05:24:28;98772.94;;;16.49;78.61
40117;BME280;25829;50.228;18.936;2022-07-06T05:27:29;98779.66;;;16.52;78.04
40117;BME280;25829;50.228;18.936;2022-07-06T05:30:31;98761.56;;;16.54;78.01
40117;BME280;25829;50.228;18.936;2022-07-06T05:33:33;98767.97;;;16.53;77.75
40117;BME280;25829;50.228;18.936;2022-07-06T05:36:35;98770.16;;;16.56;78.18
40117;BME280;25829;50.228;18.936;2022-07-06T05:39:36;98772.09;;;16.61;78.17
40117;BME280;25829;50.228;18.936;2022-07-06T05:42:39;98786.31;;;16.66;77.76
40117;BME280;25829;50.228;18.936;2022-07-06T05:45:46;98786.16;;;16.73;77.94
40117;BME280;25829;50.228;18.936;2022-07-06T05:48:48;98796.34;;;16.76;78.16
40117;BME280;25829;50.228;18.936;2022-07-06T05:52:08;98800.69;;;16.82;78.08
40117;BME280;25829;50.228;18.936;2022-07-06T05:55:10;98796.53;;;16.86;78.17
40117;BME280;25829;50.228;18.936;2022-07-06T05:58:11;98805.06;;;16.88;77.96
40117;BME280;25829;50.228;18.936;2022-07-06T06:01:12;98803.78;;;16.91;78.03
40117;BME280;25829;50.228;18.936;2022-07-06T06:04:16;98811.53;;;16.92;77.87
40117;BME280;25829;50.228;18.936;2022-07-06T06:07:17;98806.53;;;16.96;78.15
40117;BME280;25829;50.228;18.936;2022-07-06T06:10:18;98812.78;;;17.02;78.24
40117;BME280;25829;50.228;18.936;2022-07-06T06:13:24;98822.47;;;17.08;78.09
40117;BME280;25829;50.228;18.936;2022-07-06T06:16:24;98827.06;;;17.12;77.89
40117;BME280;25829;50.228;18.936;2022-07-06T06:19:25;98838.09;;;17.16;77.59
40117;BME280;25829;50.228;18.936;2022-07-06T06:22:26;98840.75;;;17.16;77.07
40117;BME280;25829;50.228;18.936;2022-07-06T06:25:35;98853.50;;;17.14;76.96
40117;BME280;25829;50.228;18.936;2022-07-06T06:28:36;98851.00;;;17.07;76.55
40117;BME280;25829;50.228;18.936;2022-07-06T06:31:37;98847.66;;;17.00;76.61
40117;BME280;25829;50.228;18.936;2022-07-06T06:34:39;98859.13;;;17.01;76.76
40117;BME280;25829;50.228;18.936;2022-07-06T06:37:40;98847.41;;;17.02;76.76
40117;BME280;25829;50.228;18.936;2022-07-06T06:40:41;98856.53;;;17.06;76.84
40117;BME280;25829;50.228;18.936;2022-07-06T06:43:41;98858.75;;;17.09;76.71
40117;BME280;25829;50.228;18.936;2022-07-06T06:46:47;98865.03;;;17.03;76.34
40117;BME280;25829;50.228;18.936;2022-07-06T06:49:48;98863.41;;;17.02;76.36
40117;BME280;25829;50.228;18.936;2022-07-06T06:52:50;98862.84;;;16.99;76.69
40117;BME280;25829;50.228;18.936;2022-07-06T06:55:50;98861.47;;;16.97;76.45
40117;BME280;25829;50.228;18.936;2022-07-06T06:58:51;98871.66;;;17.00;77.00
40117;BME280;25829;50.228;18.936;2022-07-06T07:01:52;98846.69;;;17.06;77.00
40117;BME280;25829;50.228;18.936;2022-07-06T07:04:53;98854.91;;;17.16;76.88
40117;BME280;25829;50.228;18.936;2022-07-06T07:11:17;98849.56;;;17.16;76.37
40117;BME280;25829;50.228;18.936;2022-07-06T07:14:18;98851.53;;;17.09;75.81
40117;BME280;25829;50.228;18.936;2022-07-06T07:17:19;98851.75;;;16.91;74.92
40117;BME280;25829;50.228;18.936;2022-07-06T07:20:20;98882.63;;;16.75;75.16
40117;BME280;25829;50.228;18.936;2022-07-06T07:23:20;98878.16;;;16.64;75.03
40117;BME280;25829;50.228;18.936;2022-07-06T07:26:21;98882.34;;;16.60;75.31
40117;BME280;25829;50.228;18.936;2022-07-06T07:29:22;98879.44;;;16.61;75.07
40117;BME280;25829;50.228;18.936;2022-07-06T07:32:23;98898.34;;;16.60;74.43
40117;BME280;25829;50.228;18.936;2022-07-06T07:35:24;98889.75;;;16.58;74.71
40117;BME280;25829;50.228;18.936;2022-07-06T07:38:25;98886.75;;;16.54;74.26
40117;BME280;25829;50.228;18.936;2022-07-06T07:41:26;98886.66;;;16.49;73.70
40117;BME280;25829;50.228;18.936;2022-07-06T07:44:27;98890.22;;;16.55;74.05
40117;BME280;25829;50.228;18.936;2022-07-06T07:47:28;98896.72;;;16.59;74.20
40117;BME280;25829;50.228;18.936;2022-07-06T07:50:28;98899.72;;;16.50;72.97
40117;BME280;25829;50.228;18.936;2022-07-06T07:53:29;98892.88;;;16.55;73.95
40117;BME280;25829;50.228;18.936;2022-07-06T07:56:30;98889.34;;;16.78;74.00
40117;BME280;25829;50.228;18.936;2022-07-06T07:59:31;98883.34;;;16.99;72.91
40117;BME280;25829;50.228;18.936;2022-07-06T08:02:33;98876.00;;;17.18;72.78
40117;BME280;25829;50.228;18.936;2022-07-06T08:05:34;98884.19;;;17.28;71.90
40117;BME280;25829;50.228;18.936;2022-07-06T08:08:35;98888.53;;;17.34;70.09
40117;BME280;25829;50.228;18.936;2022-07-06T08:11:36;98887.38;;;17.30;68.20
40117;BME280;25829;50.228;18.936;2022-07-06T08:14:42;98889.69;;;17.38;69.69
40117;BME280;25829;50.228;18.936;2022-07-06T08:17:43;98884.00;;;17.52;69.94
40117;BME280;25829;50.228;18.936;2022-07-06T08:20:44;98893.34;;;17.66;69.84
40117;BME280;25829;50.228;18.936;2022-07-06T08:23:45;98893.41;;;17.71;69.41
40117;BME280;25829;50.228;18.936;2022-07-06T08:26:46;98890.88;;;17.81;69.44
40117;BME280;25829;50.228;18.936;2022-07-06T08:29:47;98888.38;;;17.91;68.88
40117;BME280;25829;50.228;18.936;2022-07-06T08:32:51;98886.50;;;17.92;67.77
40117;BME280;25829;50.228;18.936;2022-07-06T08:35:52;98879.78;;;17.89;67.45
40117;BME280;25829;50.228;18.936;2022-07-06T08:38:53;98878.22;;;17.93;67.41
40117;BME280;25829;50.228;18.936;2022-07-06T08:41:56;98878.81;;;17.96;66.50
40117;BME280;25829;50.228;18.936;2022-07-06T08:45:01;98871.88;;;17.95;66.91
40117;BME280;25829;50.228;18.936;2022-07-06T08:48:06;98881.97;;;17.92;66.46
40117;BME280;25829;50.228;18.936;2022-07-06T08:51:07;98886.81;;;17.96;67.39
40117;BME280;25829;50.228;18.936;2022-07-06T08:54:09;98873.72;;;17.94;66.38
40117;BME280;25829;50.228;18.936;2022-07-06T08:57:11;98877.75;;;17.97;66.86
40117;BME280;25829;50.228;18.936;2022-07-06T09:00:13;98875.75;;;18.04;67.40
40117;BME280;25829;50.228;18.936;2022-07-06T09:03:14;98868.78;;;18.03;66.42
40117;BME280;25829;50.228;18.936;2022-07-06T09:06:25;98867.81;;;18.09;66.93
40117;BME280;25829;50.228;18.936;2022-07-06T09:09:28;98869.25;;;18.16;66.90
40117;BME280;25829;50.228;18.936;2022-07-06T09:12:31;98859.69;;;18.21;66.77
40117;BME280;25829;50.228;18.936;2022-07-06T09:15:33;98856.59;;;18.29;66.71
40117;BME280;25829;50.228;18.936;2022-07-06T09:18:37;98865.78;;;18.38;67.00
40117;BME280;25829;50.228;18.936;2022-07-06T09:21:44;98854.97;;;18.50;66.03
40117;BME280;25829;50.228;18.936;2022-07-06T09:24:45;98866.13;;;18.69;65.53
40117;BME280;25829;50.228;18.936;2022-07-06T09:27:47;98857.47;;;18.83;65.46
40117;BME280;25829;50.228;18.936;2022-07-06T09:30:54;98858.72;;;18.98;65.24
40117;BME280;25829;50.228;18.936;2022-07-06T09:34:00;98860.97;;;19.11;64.92
40117;BME280;25829;50.228;18.936;2022-07-06T09:37:02;98866.47;;;19.26;65.15
40117;BME280;25829;50.228;18.936;2022-07-06T09:40:16;98862.09;;;19.47;64.06
40117;BME280;25829;50.228;18.936;2022-07-06T09:43:22;98857.66;;;19.63;63.70
40117;BME280;25829;50.228;18.936;2022-07-06T09:46:23;98867.38;;;19.69;62.81
40117;BME280;25829;50.228;18.936;2022-07-06T09:49:28;98856.94;;;19.68;62.51
40117;BME280;25829;50.228;18.936;2022-07-06T09:52:33;98869.78;;;19.71;61.79
40117;BME280;25829;50.228;18.936;2022-07-06T09:55:34;98869.50;;;19.67;61.39
40117;BME280;25829;50.228;18.936;2022-07-06T09:58:38;98866.84;;;19.67;61.17
40117;BME280;25829;50.228;18.936;2022-07-06T10:01:40;98871.13;;;19.73;60.88
40117;BME280;25829;50.228;18.936;2022-07-06T10:04:44;98868.50;;;19.78;61.61
40117;BME280;25829;50.228;18.936;2022-07-06T10:07:48;98867.72;;;19.83;61.29
40117;BME280;25829;50.228;18.936;2022-07-06T10:10:53;98862.44;;;19.93;61.86
40117;BME280;25829;50.228;18.936;2022-07-06T10:14:00;98862.75;;;20.02;58.74
40117;BME280;25829;50.228;18.936;2022-07-06T10:17:03;98865.22;;;20.14;60.11
40117;BME280;25829;50.228;18.936;2022-07-06T10:20:07;98858.34;;;20.33;60.41
40117;BME280;25829;50.228;18.936;2022-07-06T10:23:09;98866.75;;;20.47;59.24
40117;BME280;25829;50.228;18.936;2022-07-06T10:26:11;98863.28;;;20.51;55.59
40117;BME280;25829;50.228;18.936;2022-07-06T10:29:12;98861.94;;;20.54;57.25
40117;BME280;25829;50.228;18.936;2022-07-06T10:32:18;98863.03;;;20.58;57.46
40117;BME280;25829;50.228;18.936;2022-07-06T10:35:20;98865.19;;;20.61;57.18
40117;BME280;25829;50.228;18.936;2022-07-06T10:38:33;98857.94;;;20.62;56.61
40117;BME280;25829;50.228;18.936;2022-07-06T10:41:35;98866.50;;;20.59;57.33
40117;BME280;25829;50.228;18.936;2022-07-06T10:44:44;98857.88;;;20.46;56.66
40117;BME280;25829;50.228;18.936;2022-07-06T10:47:45;98860.31;;;20.48;57.99
40117;BME280;25829;50.228;18.936;2022-07-06T10:50:55;98868.91;;;20.60;57.34
40117;BME280;25829;50.228;18.936;2022-07-06T10:54:00;98860.09;;;20.65;56.66
40117;BME280;25829;50.228;18.936;2022-07-06T10:57:10;98858.78;;;20.72;57.76
40117;BME280;25829;50.228;18.936;2022-07-06T11:00:11;98865.50;;;20.80;57.84
40117;BME280;25829;50.228;18.936;2022-07-06T11:03:38;98876.25;;;20.90;56.90
40117;BME280;25829;50.228;18.936;2022-07-06T11:06:39;98870.88;;;20.80;57.58
40117;BME280;25829;50.228;18.936;2022-07-06T11:09:57;98878.91;;;20.80;57.00
40117;BME280;25829;50.228;18.936;2022-07-06T11:13:01;98879.69;;;20.70;57.93
40117;BME280;25829;50.228;18.936;2022-07-06T11:16:02;98887.44;;;20.67;57.83
40117;BME280;25829;50.228;18.936;2022-07-06T11:19:22;98889.31;;;20.61;57.27
40117;BME280;25829;50.228;18.936;2022-07-06T11:22:29;98892.53;;;20.58;57.87
40117;BME280;25829;50.228;18.936;2022-07-06T11:25:30;98888.75;;;20.59;57.89
40117;BME280;25829;50.228;18.936;2022-07-06T11:28:32;98894.66;;;20.56;57.76
40117;BME280;25829;50.228;18.936;2022-07-06T11:31:34;98894.13;;;20.59;58.36
40117;BME280;25829;50.228;18.936;2022-07-06T11:34:38;98893.63;;;20.67;58.13
40117;BME280;25829;50.228;18.936;2022-07-06T11:37:40;98898.47;;;20.75;58.34
40117;BME280;25829;50.228;18.936;2022-07-06T11:40:43;98885.91;;;20.81;57.98
40117;BME280;25829;50.228;18.936;2022-07-06T11:43:47;98885.91;;;20.86;58.09
40117;BME280;25829;50.228;18.936;2022-07-06T11:46:51;98894.50;;;20.88;57.69
40117;BME280;25829;50.228;18.936;2022-07-06T11:49:52;98890.75;;;20.94;57.79
40117;BME280;25829;50.228;18.936;2022-07-06T11:52:53;98885.16;;;21.06;57.82
40117;BME280;25829;50.228;18.936;2022-07-06T11:55:54;98888.91;;;21.15;54.50
40117;BME280;25829;50.228;18.936;2022-07-06T11:58:58;98891.31;;;21.17;56.17
40117;BME280;25829;50.228;18.936;2022-07-06T12:02:09;98881.69;;;21.21;55.58
40117;BME280;25829;50.228;18.936;2022-07-06T12:05:10;98879.84;;;21.27;56.95
40117;BME280;25829;50.228;18.936;2022-07-06T12:08:11;98873.38;;;21.22;56.00
40117;BME280;25829;50.228;18.936;2022-07-06T12:14:23;98868.00;;;21.12;55.93
40117;BME280;25829;50.228;18.936;2022-07-06T12:17:24;98870.38;;;21.09;55.95
40117;BME280;25829;50.228;18.936;2022-07-06T12:20:26;98885.41;;;20.99;55.58
40117;BME280;25829;50.228;18.936;2022-07-06T12:23:38;98876.81;;;20.97;54.90
40117;BME280;25829;50.228;18.936;2022-07-06T12:26:40;98873.88;;;20.99;55.01
40117;BME280;25829;50.228;18.936;2022-07-06T12:29:41;98872.25;;;21.03;54.62
40117;BME280;25829;50.228;18.936;2022-07-06T12:32:42;98862.88;;;21.06;54.08
40117;BME280;25829;50.228;18.936;2022-07-06T12:35:43;98863.69;;;21.11;54.65
40117;BME280;25829;50.228;18.936;2022-07-06T12:38:46;98857.03;;;21.24;54.86
40117;BME280;25829;50.228;18.936;2022-07-06T12:48:16;98862.09;;;21.46;54.29
40117;BME280;25829;50.228;18.936;2022-07-06T12:51:17;98851.66;;;21.55;53.89
40117;BME280;25829;50.228;18.936;2022-07-06T12:54:18;98853.78;;;21.58;53.96
40117;BME280;25829;50.228;18.936;2022-07-06T12:57:20;98857.03;;;21.55;53.47
40117;BME280;25829;50.228;18.936;2022-07-06T13:00:24;98855.69;;;21.47;53.41
40117;BME280;25829;50.228;18.936;2022-07-06T13:03:25;98858.34;;;21.42;52.65
40117;BME280;25829;50.228;18.936;2022-07-06T13:06:40;98850.31;;;21.32;52.18
40117;BME280;25829;50.228;18.936;2022-07-06T13:09:40;98859.69;;;21.24;53.01
40117;BME280;25829;50.228;18.936;2022-07-06T13:12:42;98851.91;;;21.17;52.46
40117;BME280;25829;50.228;18.936;2022-07-06T13:15:43;98852.41;;;21.14;52.21
40117;BME280;25829;50.228;18.936;2022-07-06T13:18:43;98848.69;;;21.20;52.50
40117;BME280;25829;50.228;18.936;2022-07-06T13:21:44;98855.69;;;21.27;50.51
40117;BME280;25829;50.228;18.936;2022-07-06T13:24:45;98847.09;;;21.30;51.47
40117;BME280;25829;50.228;18.936;2022-07-06T13:27:46;98846.56;;;21.28;49.63
40117;BME280;25829;50.228;18.936;2022-07-06T13:30:47;98846.81;;;21.31;51.01
40117;BME280;25829;50.228;18.936;2022-07-06T13:33:48;98846.53;;;21.33;50.45
40117;BME280;25829;50.228;18.936;2022-07-06T13:36:49;98834.19;;;21.32;50.05
40117;BME280;25829;50.228;18.936;2022-07-06T13:39:50;98841.44;;;21.36;50.17
40117;BME280;25829;50.228;18.936;2022-07-06T13:42:50;98839.31;;;21.38;50.49
40117;BME280;25829;50.228;18.936;2022-07-06T13:45:54;98837.41;;;21.39;50.08
40117;BME280;25829;50.228;18.936;2022-07-06T13:48:57;98827.47;;;21.39;50.21
40117;BME280;25829;50.228;18.936;2022-07-06T13:51:59;98822.13;;;21.39;50.47
40117;BME280;25829;50.228;18.936;2022-07-06T13:55:04;98823.47;;;21.37;50.51
40117;BME280;25829;50.228;18.936;2022-07-06T13:58:06;98814.88;;;21.35;50.16
40117;BME280;25829;50.228;18.936;2022-07-06T14:01:08;98819.97;;;21.31;50.27
40117;BME280;25829;50.228;18.936;2022-07-06T14:04:09;98814.88;;;21.25;50.21
40117;BME280;25829;50.228;18.936;2022-07-06T14:07:10;98818.13;;;21.27;51.02
40117;BME280;25829;50.228;18.936;2022-07-06T14:10:11;98814.34;;;21.33;50.95
40117;BME280;25829;50.228;18.936;2022-07-06T14:13:11;98809.50;;;21.35;50.77
40117;BME280;25829;50.228;18.936;2022-07-06T14:16:12;98808.72;;;21.34;50.93
40117;BME280;25829;50.228;18.936;2022-07-06T14:19:13;98806.28;;;21.33;50.80
40117;BME280;25829;50.228;18.936;2022-07-06T14:22:55;98800.91;;;21.33;50.43
40117;BME280;25829;50.228;18.936;2022-07-06T14:25:58;98799.06;;;21.33;49.60
40117;BME280;25829;50.228;18.936;2022-07-06T14:28:59;98796.09;;;21.35;50.20
40117;BME280;25829;50.228;18.936;2022-07-06T14:32:00;98788.84;;;21.40;49.62
40117;BME280;25829;50.228;18.936;2022-07-06T14:35:00;98796.63;;;21.42;49.68
40117;BME280;25829;50.228;18.936;2022-07-06T14:38:03;98783.22;;;21.47;49.22
40117;BME280;25829;50.228;18.936;2022-07-06T14:41:04;98790.16;;;21.53;48.73
40117;BME280;25829;50.228;18.936;2022-07-06T14:44:08;98781.03;;;21.59;48.74
40117;BME280;25829;50.228;18.936;2022-07-06T14:47:09;98789.34;;;21.68;48.74
40117;BME280;25829;50.228;18.936;2022-07-06T14:50:09;98783.41;;;21.76;47.56
40117;BME280;25829;50.228;18.936;2022-07-06T14:53:10;98786.63;;;21.78;47.35
40117;BME280;25829;50.228;18.936;2022-07-06T14:56:14;98784.22;;;21.82;47.58
40117;BME280;25829;50.228;18.936;2022-07-06T14:59:14;98788.47;;;21.88;47.39
40117;BME280;25829;50.228;18.936;2022-07-06T15:02:15;98795.47;;;21.94;47.49
40117;BME280;25829;50.228;18.936;2022-07-06T15:05:16;98800.56;;;21.96;46.58
40117;BME280;25829;50.228;18.936;2022-07-06T15:08:17;98799.50;;;21.97;46.10
40117;BME280;25829;50.228;18.936;2022-07-06T15:11:18;98811.31;;;21.85;43.56
40117;BME280;25829;50.228;18.936;2022-07-06T15:14:19;98821.03;;;21.45;43.85
40117;BME280;25829;50.228;18.936;2022-07-06T15:17:20;98843.78;;;20.87;45.83
40117;BME280;25829;50.228;18.936;2022-07-06T15:20:21;98860.31;;;20.48;47.68
40117;BME280;25829;50.228;18.936;2022-07-06T15:23:23;98857.47;;;20.17;48.11
40117;BME280;25829;50.228;18.936;2022-07-06T15:26:23;98858.72;;;19.99;48.92
40117;BME280;25829;50.228;18.936;2022-07-06T15:29:25;98848.75;;;19.90;48.66
40117;BME280;25829;50.228;18.936;2022-07-06T15:32:26;98849.50;;;19.80;48.70
40117;BME280;25829;50.228;18.936;2022-07-06T15:35:27;98849.44;;;19.70;48.61
40117;BME280;25829;50.228;18.936;2022-07-06T15:38:28;98856.03;;;19.57;49.18
40117;BME280;25829;50.228;18.936;2022-07-06T15:41:29;98863.91;;;19.42;49.30
40117;BME280;25829;50.228;18.936;2022-07-06T15:44:29;98869.69;;;19.28;49.02
40117;BME280;25829;50.228;18.936;2022-07-06T15:47:30;98855.13;;;19.14;48.70
40117;BME280;25829;50.228;18.936;2022-07-06T15:50:31;98855.59;;;19.06;49.42
40117;BME280;25829;50.228;18.936;2022-07-06T15:53:32;98849.44;;;19.05;49.86
40117;BME280;25829;50.228;18.936;2022-07-06T15:56:36;98857.25;;;19.12;49.67
40117;BME280;25829;50.228;18.936;2022-07-06T15:59:38;98837.97;;;19.10;49.28
40117;BME280;25829;50.228;18.936;2022-07-06T16:02:40;98844.94;;;19.11;49.68
40117;BME280;25829;50.228;18.936;2022-07-06T16:05:41;98845.69;;;19.06;49.09